Strona główna
METAR-TAF:

METAR-TAF

Lotnisko :

Port lotniczy Düsseldorf

Düsseldorf, Niemcy

Szerokość geograficzna: 51-18N, Długość geograficzna: 006-46E, wysokość: 45 m

Aktualna obserwacja pogody

Raport powstał 20 minut temu, godzina 00:20 UTC
Wiatr 10 kt od południowo-południowy wschód
Temperatura 5°C
Wilgotność 87%
Ciśnienie 1007 hPa
Widzialność 10 km lub więcej
Brak chmur poniżej 1500 m i brak chmur cumulonimbus

METAR: EDDL 160020Z 15010KT CAVOK 05/03 Q1007 NOSIG

czas: 01:40 (00:40 UTC)

Prognoza

Raport powstał 1 godzina i 40 minut temu, godzina 23:00 UTC
Prognoza ważna od 16 godzina 00 UTC do 17 godzina 06 UTC
Wiatr 10 kt od południowo-południowy wschód
Widzialność 10 km lub więcej
Przerywane chmury na wysokości 2500 ft
Prawdopodobieństwo 30% :
Przejściowo
od 16 godzina 07 UTC do 16 godzina 13 UTC
deszcz

TAF: EDDL 152300Z 1600/1706 16010KT 9999 BKN025 PROB30 TEMPO 1607/1613 RA

Obserwacja i prognoza pogody dla ponad 4000 lotnisk (raport METAR i TAF).

Dostępne stacje oznaczono żółtymi i czerwonymi punktami na mapie.

Najedź kursorem aby zobaczyć nazwę stacji.

Kliknij aby zobaczyć obserwacje i prognozy pogody.

Aby zmienić mapę: kliknij na zielony przycisk z czarnym krzyżykiem, aby powiększyć; na zielony przycisk z myślnikiem, aby pomniejszyć; na zielone strzałki, aby przejść do map sąsiednich.


METAR-TAF: